createdAt,value
2023-03-13T00:01:46.780Z,39.17
2023-03-13T00:04:14.242Z,40.80
2023-03-13T00:06:42.687Z,40.03
2023-03-13T00:09:12.159Z,46.28
2023-03-13T00:11:39.373Z,45.33
2023-03-13T00:14:08.391Z,45.15
2023-03-13T00:16:37.801Z,40.67
2023-03-13T00:19:06.295Z,41.15
2023-03-13T00:21:33.583Z,41.03
2023-03-13T00:24:01.119Z,41.95
2023-03-13T00:26:29.778Z,36.33
2023-03-13T00:28:57.125Z,38.97
2023-03-13T00:31:29.753Z,36.70
2023-03-13T00:34:02.044Z,38.65
2023-03-13T00:36:31.902Z,33.80
2023-03-13T00:38:59.993Z,42.67
2023-03-13T00:41:29.745Z,41.03
2023-03-13T00:43:57.319Z,41.08
2023-03-13T00:46:27.174Z,37.05
2023-03-13T00:48:54.427Z,40.30
2023-03-13T00:51:24.056Z,35.85
2023-03-13T00:53:51.252Z,29.30
2023-03-13T00:56:20.281Z,29.92
2023-03-13T00:58:49.414Z,29.30
2023-03-13T01:01:29.001Z,30.63
2023-03-13T01:04:01.442Z,31.38
2023-03-13T01:06:31.028Z,29.67
2023-03-13T01:08:58.632Z,29.38
2023-03-13T01:11:27.811Z,30.63
2023-03-13T01:13:57.407Z,32.95
2023-03-13T01:16:26.154Z,41.53
2023-03-13T01:18:55.986Z,39.35
2023-03-13T01:21:24.384Z,35.40
2023-03-13T01:23:53.110Z,40.97
2023-03-13T01:26:21.569Z,37.63
2023-03-13T01:28:48.886Z,41.50
2023-03-13T01:31:20.377Z,38.30
2023-03-13T01:33:50.813Z,40.05
2023-03-13T01:36:19.147Z,35.63
2023-03-13T01:38:50.391Z,35.58
2023-03-13T01:41:18.745Z,33.25
2023-03-13T01:43:47.177Z,36.55
2023-03-13T01:46:22.490Z,34.65
2023-03-13T01:48:49.579Z,35.25
2023-03-13T01:51:50.143Z,37.00
2023-03-13T01:54:47.998Z,30.00
2023-03-13T01:57:26.356Z,33.08
2023-03-13T02:00:13.204Z,34.10
2023-03-13T02:02:45.078Z,38.60
2023-03-13T02:05:13.935Z,37.80
2023-03-13T02:07:47.087Z,42.67
2023-03-13T02:10:18.174Z,39.15
2023-03-13T02:12:45.408Z,43.45
2023-03-13T02:15:18.688Z,43.80
2023-03-13T02:17:47.660Z,43.05
2023-03-13T02:20:17.699Z,46.05
2023-03-13T02:22:56.575Z,43.25
2023-03-13T02:25:50.163Z,44.70
2023-03-13T02:28:33.548Z,47.53
2023-03-13T02:31:01.905Z,49.58
2023-03-13T02:33:36.322Z,46.45
2023-03-13T02:36:05.221Z,46.50
2023-03-13T02:38:37.407Z,45.30
2023-03-13T02:41:06.331Z,47.03
2023-03-13T02:43:37.123Z,48.72
2023-03-13T02:46:13.389Z,41.20
2023-03-13T02:48:44.794Z,44.47
2023-03-13T02:51:25.734Z,48.17
2023-03-13T02:53:55.929Z,41.25
2023-03-13T02:56:25.921Z,45.88
2023-03-13T02:58:53.089Z,44.35
2023-03-13T03:01:20.305Z,40.80
2023-03-13T03:03:47.594Z,39.65
2023-03-13T03:06:15.478Z,39.38
2023-03-13T03:08:44.027Z,39.97
2023-03-13T03:11:11.613Z,37.40
2023-03-13T03:13:38.787Z,32.83
2023-03-13T03:16:15.586Z,36.50
2023-03-13T03:18:42.717Z,33.67
2023-03-13T03:21:09.813Z,33.88
2023-03-13T03:23:37.604Z,34.20
2023-03-13T03:26:06.807Z,30.67
2023-03-13T03:28:34.032Z,34.08
2023-03-13T03:31:06.064Z,34.55
2023-03-13T03:33:33.197Z,31.60
2023-03-13T03:36:02.409Z,30.88
2023-03-13T03:38:29.601Z,31.27
2023-03-13T03:40:56.804Z,27.52
2023-03-13T03:43:23.918Z,31.45
2023-03-13T03:45:51.493Z,27.17
2023-03-13T03:48:18.695Z,38.20
2023-03-13T03:50:45.804Z,34.85
2023-03-13T03:53:12.963Z,40.83
2023-03-13T03:55:40.053Z,36.92
2023-03-13T03:58:07.824Z,45.75
2023-03-13T04:00:34.919Z,40.28
2023-03-13T04:03:02.177Z,56.28
2023-03-13T04:05:29.318Z,25.15
2023-03-13T04:07:56.481Z,46.15
2023-03-13T04:10:23.635Z,49.42
2023-03-13T04:12:50.738Z,51.30
2023-03-13T04:15:17.858Z,59.28
2023-03-13T04:17:45.004Z,56.58
2023-03-13T04:20:14.491Z,70.65
2023-03-13T04:22:42.961Z,59.88
2023-03-13T04:25:11.078Z,58.15
2023-03-13T04:27:38.372Z,63.10
2023-03-13T04:30:06.084Z,62.50
2023-03-13T04:32:33.359Z,71.35
2023-03-13T04:35:00.561Z,68.20
2023-03-13T04:37:27.700Z,61.20
2023-03-13T04:39:54.827Z,64.00
2023-03-13T04:42:21.910Z,75.93
2023-03-13T04:44:49.133Z,60.45
2023-03-13T04:47:16.207Z,63.65
2023-03-13T04:49:43.389Z,61.45
2023-03-13T04:52:10.823Z,58.42
2023-03-13T04:54:37.941Z,60.63
2023-03-13T04:57:07.026Z,59.08
2023-03-13T04:59:34.362Z,53.67
2023-03-13T05:02:01.573Z,54.58
2023-03-13T05:04:28.729Z,56.60
2023-03-13T05:06:55.838Z,55.08
2023-03-13T05:09:22.954Z,53.80
2023-03-13T05:11:50.968Z,48.17
2023-03-13T05:14:19.805Z,50.28
2023-03-13T05:16:46.962Z,54.22
2023-03-13T05:19:14.139Z,50.40
2023-03-13T05:21:41.320Z,52.42
2023-03-13T05:24:08.536Z,54.83
2023-03-13T05:26:35.720Z,52.13
2023-03-13T05:29:02.933Z,51.40
2023-03-13T05:31:30.246Z,52.35
2023-03-13T05:33:57.386Z,63.50
2023-03-13T05:36:24.544Z,58.38
2023-03-13T05:38:51.769Z,57.20
2023-03-13T05:41:18.918Z,52.80
2023-03-13T05:43:46.059Z,62.80
2023-03-13T05:46:13.259Z,54.28
2023-03-13T05:48:40.420Z,53.83
2023-03-13T05:51:07.586Z,53.55
2023-03-13T05:53:34.740Z,52.70
2023-03-13T05:56:01.988Z,49.05
2023-03-13T05:58:29.245Z,47.25
2023-03-13T06:00:56.381Z,46.10
2023-03-13T06:03:23.560Z,80.18
2023-03-13T06:05:50.678Z,40.60
2023-03-13T06:08:18.600Z,41.17
2023-03-13T06:10:46.873Z,41.97
2023-03-13T06:13:20.178Z,41.95
2023-03-13T06:15:55.684Z,41.80
2023-03-13T06:18:23.745Z,36.10
2023-03-13T06:20:56.114Z,38.20
2023-03-13T06:23:23.433Z,33.13
2023-03-13T06:25:50.603Z,30.75
2023-03-13T06:28:18.626Z,30.83
2023-03-13T06:30:45.890Z,28.02
2023-03-13T06:33:13.148Z,30.60
2023-03-13T06:35:55.296Z,27.33
2023-03-13T06:38:25.441Z,27.73
2023-03-13T06:40:52.815Z,28.17
2023-03-13T06:43:20.788Z,32.55
2023-03-13T06:45:48.135Z,29.75
2023-03-13T06:48:15.467Z,28.55
2023-03-13T06:50:43.148Z,25.83
2023-03-13T06:53:18.565Z,23.85
2023-03-13T06:55:47.102Z,18.38
2023-03-13T06:58:29.160Z,21.98
2023-03-13T07:00:58.398Z,21.13
2023-03-13T07:03:25.771Z,21.08
2023-03-13T07:05:57.623Z,22.88
2023-03-13T07:08:27.948Z,23.00
2023-03-13T07:10:59.678Z,25.08
2023-03-13T07:13:27.127Z,27.83
2023-03-13T07:15:54.360Z,20.30
2023-03-13T07:18:23.210Z,23.27
2023-03-13T07:20:55.266Z,19.80
2023-03-13T07:23:23.784Z,22.50
2023-03-13T07:26:00.013Z,18.75
2023-03-13T07:28:28.158Z,16.30
2023-03-13T07:30:55.380Z,17.73
2023-03-13T07:33:22.480Z,16.33
2023-03-13T07:35:51.470Z,16.45
2023-03-13T07:38:19.617Z,16.20
2023-03-13T07:40:51.611Z,13.40
2023-03-13T07:43:19.376Z,18.50
2023-03-13T07:45:55.462Z,15.63
2023-03-13T07:48:24.216Z,15.38
2023-03-13T07:50:51.973Z,17.42
2023-03-13T07:53:22.411Z,20.05
2023-03-13T07:55:58.086Z,26.30
2023-03-13T07:58:26.598Z,17.58
2023-03-13T08:00:54.508Z,20.35
2023-03-13T08:03:22.607Z,25.65
2023-03-13T08:06:02.252Z,24.80
2023-03-13T08:08:30.555Z,21.73
2023-03-13T08:11:05.685Z,21.73
2023-03-13T08:13:33.960Z,21.60
2023-03-13T08:16:07.962Z,18.35
2023-03-13T08:18:37.513Z,20.33
2023-03-13T08:21:07.909Z,17.98
2023-03-13T08:23:35.551Z,19.23
2023-03-13T08:26:05.017Z,21.77
2023-03-13T08:28:32.219Z,20.83
2023-03-13T08:30:59.514Z,20.27
2023-03-13T08:33:26.751Z,15.52
2023-03-13T08:35:53.997Z,16.50
2023-03-13T08:38:21.254Z,16.25
2023-03-13T08:40:48.409Z,15.27
2023-03-13T08:43:15.536Z,13.05
2023-03-13T08:45:42.730Z,14.18
2023-03-13T08:48:09.928Z,14.02
2023-03-13T08:50:37.069Z,12.35
2023-03-13T08:53:04.193Z,13.75
2023-03-13T08:55:31.399Z,13.75
2023-03-13T08:57:58.758Z,16.50
2023-03-13T09:00:26.096Z,14.15
2023-03-13T09:02:53.281Z,12.10
2023-03-13T09:05:20.787Z,12.57
2023-03-13T09:07:47.958Z,13.05
2023-03-13T09:10:15.150Z,13.68
2023-03-13T09:12:42.553Z,10.27
2023-03-13T09:15:10.103Z,14.55
2023-03-13T09:17:37.252Z,13.57
2023-03-13T09:20:05.225Z,15.00
2023-03-13T09:22:32.363Z,11.80
2023-03-13T09:24:59.490Z,11.48
2023-03-13T09:27:28.406Z,14.52
2023-03-13T09:29:55.620Z,9.45
2023-03-13T09:32:22.816Z,10.38
2023-03-13T09:34:49.938Z,11.43
2023-03-13T09:37:17.069Z,11.50
2023-03-13T09:39:44.160Z,13.27
2023-03-13T09:42:21.074Z,9.65
2023-03-13T09:45:04.373Z,10.75
2023-03-13T09:47:42.974Z,12.95
2023-03-13T09:50:19.037Z,12.75
2023-03-13T09:52:48.957Z,18.70
2023-03-13T09:55:30.583Z,9.43
2023-03-13T09:58:06.762Z,11.63
2023-03-13T10:00:38.606Z,12.90
2023-03-13T10:03:11.840Z,17.88
2023-03-13T10:05:49.669Z,19.35
2023-03-13T10:08:30.194Z,50.42
2023-03-13T10:11:15.918Z,44.78
2023-03-13T10:13:57.025Z,53.55
2023-03-13T10:16:47.453Z,53.45
2023-03-13T10:19:19.658Z,37.30
2023-03-13T10:21:51.805Z,31.60
2023-03-13T10:24:41.389Z,23.02
2023-03-13T10:27:14.565Z,20.90
2023-03-13T10:29:41.645Z,18.13
2023-03-13T10:32:12.446Z,16.45
2023-03-13T10:34:45.667Z,14.82
2023-03-13T10:37:16.341Z,13.05
2023-03-13T10:39:43.486Z,17.70
2023-03-13T10:42:19.642Z,20.65
2023-03-13T10:44:46.829Z,15.57
2023-03-13T10:47:16.051Z,18.05
2023-03-13T10:49:57.368Z,10.27
2023-03-13T10:52:43.307Z,8.52
2023-03-13T10:55:13.626Z,23.52
2023-03-13T10:57:52.682Z,17.60
2023-03-13T11:00:39.980Z,14.68
2023-03-13T11:03:19.970Z,15.07
2023-03-13T11:06:03.795Z,19.55
2023-03-13T11:08:43.864Z,15.52
2023-03-13T11:11:21.352Z,14.73
2023-03-13T11:13:48.503Z,18.35
2023-03-13T11:16:24.841Z,20.15
2023-03-13T11:19:00.741Z,19.40
2023-03-13T11:21:42.201Z,15.60
2023-03-13T11:24:52.095Z,16.35
2023-03-13T11:27:51.239Z,15.10
2023-03-13T11:30:41.773Z,17.30
2023-03-13T11:33:30.746Z,12.80
2023-03-13T11:36:03.770Z,15.10
2023-03-13T11:38:48.443Z,15.77
2023-03-13T11:41:40.348Z,16.80
2023-03-13T11:44:13.574Z,15.30
2023-03-13T11:46:59.172Z,19.73
2023-03-13T11:49:36.882Z,20.25
2023-03-13T11:52:28.005Z,15.55
2023-03-13T11:55:27.353Z,17.35
2023-03-13T11:58:20.888Z,14.57
2023-03-13T12:01:03.004Z,13.82
2023-03-13T12:03:51.310Z,13.88
2023-03-13T12:06:28.652Z,12.85
2023-03-13T12:09:21.622Z,12.77
2023-03-13T12:12:03.519Z,13.48
2023-03-13T12:15:13.273Z,12.07
2023-03-13T12:17:47.252Z,11.80
2023-03-13T12:20:24.214Z,13.90
2023-03-13T12:22:57.110Z,11.98
2023-03-13T12:26:00.416Z,10.82
2023-03-13T12:28:34.109Z,12.85
2023-03-13T12:31:14.292Z,13.52
2023-03-13T12:33:56.552Z,11.00
2023-03-13T12:37:02.392Z,12.43
2023-03-13T12:39:36.161Z,10.60
2023-03-13T12:42:11.247Z,9.43
2023-03-13T12:44:40.417Z,10.00
2023-03-13T12:47:15.108Z,8.20
2023-03-13T12:50:00.712Z,7.43
2023-03-13T12:53:02.225Z,9.60
2023-03-13T12:55:44.890Z,10.82
2023-03-13T12:58:15.259Z,8.80
2023-03-13T13:00:46.095Z,11.25
2023-03-13T13:03:40.499Z,10.25
2023-03-13T13:06:09.835Z,8.87
2023-03-13T13:08:41.056Z,14.45
2023-03-13T13:11:50.120Z,10.18
2023-03-13T13:14:17.308Z,10.45
2023-03-13T13:16:49.245Z,10.82
2023-03-13T13:19:25.647Z,11.00
2023-03-13T13:22:30.294Z,12.27
2023-03-13T13:24:59.783Z,12.73
2023-03-13T13:27:32.963Z,11.68
2023-03-13T13:30:05.535Z,13.20
2023-03-13T13:32:39.281Z,10.48
2023-03-13T13:35:12.652Z,11.02
2023-03-13T13:37:41.017Z,9.77
2023-03-13T13:40:17.026Z,10.15
2023-03-13T13:42:49.650Z,17.05
2023-03-13T13:45:16.691Z,7.97
2023-03-13T13:47:49.894Z,10.52
2023-03-13T13:50:23.136Z,12.30
2023-03-13T13:52:51.570Z,9.25
2023-03-13T13:55:42.773Z,14.63
2023-03-13T13:58:33.476Z,9.60
2023-03-13T14:01:04.455Z,9.55
2023-03-13T14:03:33.861Z,10.75
2023-03-13T14:06:17.386Z,9.38
2023-03-13T14:08:47.164Z,10.35
2023-03-13T14:11:37.871Z,9.85
2023-03-13T14:14:19.755Z,9.85
2023-03-13T14:16:50.240Z,15.52
2023-03-13T14:19:39.822Z,9.70
2023-03-13T14:22:14.550Z,9.82
2023-03-13T14:24:41.727Z,11.13
2023-03-13T14:27:17.644Z,8.38
2023-03-13T14:30:01.336Z,9.10
2023-03-13T14:32:28.626Z,10.57
2023-03-13T14:34:55.777Z,8.38
2023-03-13T14:37:36.093Z,11.57
2023-03-13T14:40:11.253Z,8.18
2023-03-13T14:42:44.553Z,13.05
2023-03-13T14:45:20.370Z,11.07
2023-03-13T14:47:47.597Z,11.52
2023-03-13T14:50:15.513Z,12.00
2023-03-13T14:52:52.916Z,9.73
2023-03-13T14:55:24.142Z,8.93
2023-03-13T14:58:00.808Z,8.13
2023-03-13T15:00:34.029Z,8.80
2023-03-13T15:03:21.206Z,9.65
2023-03-13T15:06:04.228Z,12.65
2023-03-13T15:08:32.484Z,10.10
2023-03-13T15:11:00.108Z,12.10
2023-03-13T15:13:38.879Z,7.88
2023-03-13T15:16:20.146Z,9.10
2023-03-13T15:18:48.977Z,8.52
2023-03-13T15:21:19.052Z,8.27
2023-03-13T15:23:57.545Z,9.35
2023-03-13T15:26:25.042Z,6.43
2023-03-13T15:28:52.542Z,10.27
2023-03-13T15:31:23.413Z,10.35
2023-03-13T15:33:56.283Z,7.72
2023-03-13T15:36:24.880Z,7.30
2023-03-13T15:38:52.823Z,9.23
2023-03-13T15:41:22.237Z,8.13
2023-03-13T15:43:52.902Z,6.63
2023-03-13T15:46:20.981Z,8.93
2023-03-13T15:48:49.122Z,5.63
2023-03-13T15:51:21.136Z,8.48
2023-03-13T15:53:49.339Z,8.63
2023-03-13T15:56:20.190Z,10.00
2023-03-13T15:58:48.561Z,10.55
2023-03-13T16:01:18.752Z,7.38
2023-03-13T16:03:46.390Z,14.77
2023-03-13T16:06:19.238Z,8.15
2023-03-13T16:08:47.729Z,8.02
2023-03-13T16:11:17.088Z,9.60
2023-03-13T16:13:45.707Z,7.90
2023-03-13T16:16:21.043Z,8.00
2023-03-13T16:18:51.313Z,6.22
2023-03-13T16:21:29.145Z,7.25
2023-03-13T16:23:56.885Z,6.93
2023-03-13T16:26:28.080Z,5.07
2023-03-13T16:28:55.920Z,5.90
2023-03-13T16:31:26.135Z,6.82
2023-03-13T16:33:54.780Z,5.07
2023-03-13T16:36:25.571Z,6.47
2023-03-13T16:38:53.472Z,7.32
2023-03-13T16:41:23.533Z,6.30
2023-03-13T16:43:51.340Z,4.35
2023-03-13T16:46:28.213Z,7.63
2023-03-13T16:48:58.492Z,6.80
2023-03-13T16:51:27.711Z,5.25
2023-03-13T16:53:57.633Z,7.30
2023-03-13T16:56:38.334Z,7.82
2023-03-13T16:59:13.563Z,4.13
2023-03-13T17:01:41.275Z,4.88
2023-03-13T17:04:09.183Z,7.18
2023-03-13T17:06:39.555Z,9.40
2023-03-13T17:09:13.360Z,9.30
2023-03-13T17:11:40.823Z,12.23
2023-03-13T17:14:08.309Z,11.50
2023-03-13T17:16:39.127Z,8.80
2023-03-13T17:19:06.988Z,10.07
2023-03-13T17:21:35.049Z,8.48
2023-03-13T17:24:03.093Z,8.70
2023-03-13T17:26:34.401Z,9.52
2023-03-13T17:29:02.841Z,6.28
2023-03-13T17:31:31.530Z,7.88
2023-03-13T17:33:58.816Z,8.75
2023-03-13T17:36:28.381Z,11.68
2023-03-13T17:38:58.190Z,6.68
2023-03-13T17:41:31.754Z,9.77
2023-03-13T17:43:59.818Z,7.70
2023-03-13T17:46:39.484Z,5.35
2023-03-13T17:49:09.127Z,7.45
2023-03-13T17:51:37.200Z,4.97
2023-03-13T17:54:05.221Z,6.20
2023-03-13T17:56:39.778Z,6.28
2023-03-13T17:59:19.927Z,5.15
2023-03-13T18:01:47.751Z,8.18
2023-03-13T18:04:15.774Z,10.63
2023-03-13T18:06:50.933Z,12.82
2023-03-13T18:09:21.488Z,23.88
2023-03-13T18:11:49.738Z,15.77
2023-03-13T18:14:17.632Z,14.77
2023-03-13T18:16:51.062Z,16.80
2023-03-13T18:19:26.671Z,12.85
2023-03-13T18:21:56.509Z,21.65
2023-03-13T18:24:24.730Z,15.10
2023-03-13T18:26:52.609Z,19.25
2023-03-13T18:29:29.681Z,17.27
2023-03-13T18:32:00.691Z,13.95
2023-03-13T18:34:30.388Z,14.02
2023-03-13T18:37:04.494Z,12.50
2023-03-13T18:39:33.927Z,13.98
2023-03-13T18:42:02.585Z,18.02
2023-03-13T18:44:31.603Z,19.35
2023-03-13T18:46:59.384Z,18.98
2023-03-13T18:49:27.308Z,21.95
2023-03-13T18:51:55.353Z,17.08
2023-03-13T18:54:23.442Z,28.58
2023-03-13T18:56:51.210Z,28.48
2023-03-13T18:59:23.294Z,22.23
2023-03-13T19:01:55.580Z,24.17
2023-03-13T19:04:23.604Z,26.52
2023-03-13T19:06:51.937Z,29.42
2023-03-13T19:12:13.061Z,51.58
2023-03-13T19:14:41.290Z,45.00
2023-03-13T19:17:27.716Z,76.88
2023-03-13T19:19:58.117Z,100.65
2023-03-13T19:22:27.162Z,111.40
2023-03-13T19:24:55.151Z,139.75
2023-03-13T19:27:23.425Z,115.63
2023-03-13T19:29:51.022Z,116.45
2023-03-13T19:32:20.277Z,130.25
2023-03-13T19:34:48.029Z,83.50
2023-03-13T19:37:17.213Z,58.55
2023-03-13T19:39:45.754Z,44.72
2023-03-13T19:42:14.065Z,41.50
2023-03-13T19:44:43.299Z,34.83
2023-03-13T19:47:18.392Z,32.15
2023-03-13T19:49:50.745Z,33.00
2023-03-13T19:52:20.115Z,37.67
2023-03-13T19:54:48.433Z,32.97
2023-03-13T19:57:18.147Z,22.95
2023-03-13T19:59:46.263Z,30.25
2023-03-13T20:04:55.945Z,23.98
2023-03-13T20:07:25.011Z,27.13
2023-03-13T20:09:53.965Z,23.13
2023-03-13T20:12:23.348Z,24.15
2023-03-13T20:14:51.675Z,25.80
2023-03-13T20:17:20.177Z,24.63
2023-03-13T20:19:48.792Z,27.90
2023-03-13T20:22:16.906Z,32.72
2023-03-13T20:24:46.331Z,27.38
2023-03-13T20:27:19.519Z,24.02
2023-03-13T20:29:48.246Z,24.80
2023-03-13T20:32:16.455Z,25.90
2023-03-13T20:34:44.726Z,22.33
2023-03-13T20:37:12.888Z,24.45
2023-03-13T20:39:42.953Z,22.10
2023-03-13T20:42:11.364Z,22.88
2023-03-13T20:44:41.353Z,29.70
2023-03-13T20:47:10.489Z,26.67
2023-03-13T20:49:41.657Z,27.88
2023-03-13T20:52:10.886Z,22.15
2023-03-13T20:54:42.742Z,36.55
2023-03-13T20:57:13.052Z,28.13
2023-03-13T20:59:41.882Z,26.10
2023-03-13T21:02:10.967Z,28.60
2023-03-13T21:04:40.545Z,24.38
2023-03-13T21:07:08.809Z,32.05
2023-03-13T21:09:36.518Z,32.70
2023-03-13T21:12:05.420Z,28.23
2023-03-13T21:14:35.624Z,26.05
2023-03-13T21:17:06.542Z,73.57
2023-03-13T21:19:34.413Z,68.68
2023-03-13T21:22:01.723Z,67.25
2023-03-13T21:24:29.577Z,59.15
2023-03-13T21:26:58.953Z,57.50
2023-03-13T21:29:27.546Z,50.90
2023-03-13T21:31:55.237Z,49.67
2023-03-13T21:34:22.847Z,46.35
2023-03-13T21:36:50.368Z,43.50
2023-03-13T21:39:19.283Z,41.17
2023-03-13T21:41:46.561Z,27.55
2023-03-13T21:44:13.763Z,24.20
2023-03-13T21:46:40.926Z,26.45
2023-03-13T21:49:08.303Z,25.33
2023-03-13T21:51:35.443Z,25.90
2023-03-13T21:54:02.626Z,23.88
2023-03-13T21:56:29.736Z,26.33
2023-03-13T21:58:56.873Z,29.25
2023-03-13T22:01:24.090Z,29.33
2023-03-13T22:03:51.289Z,29.75
2023-03-13T22:06:21.204Z,31.88
2023-03-13T22:08:51.739Z,29.23
2023-03-13T22:11:19.223Z,27.58
2023-03-13T22:13:46.327Z,28.23
2023-03-13T22:16:13.545Z,33.08
2023-03-13T22:18:42.414Z,27.30
2023-03-13T22:21:10.319Z,32.08
2023-03-13T22:23:37.530Z,37.17
2023-03-13T22:26:05.420Z,38.47
2023-03-13T22:28:32.579Z,30.30
2023-03-13T22:31:05.469Z,26.75
2023-03-13T22:33:33.177Z,26.58
2023-03-13T22:36:00.857Z,38.03
2023-03-13T22:38:28.270Z,34.45
2023-03-13T22:41:04.985Z,35.15
2023-03-13T22:43:32.192Z,32.80
2023-03-13T22:46:00.131Z,30.80
2023-03-13T22:48:27.943Z,29.73
2023-03-13T22:51:08.647Z,29.90
2023-03-13T22:53:37.619Z,31.50
2023-03-13T22:56:05.139Z,38.20
2023-03-13T22:58:34.188Z,42.22
2023-03-13T23:01:01.446Z,42.53
2023-03-13T23:03:28.624Z,36.92
2023-03-13T23:05:55.793Z,39.85
2023-03-13T23:08:23.219Z,37.45
2023-03-13T23:10:50.434Z,39.00
2023-03-13T23:13:17.774Z,29.38
2023-03-13T23:15:55.786Z,32.60
2023-03-13T23:18:25.579Z,33.80
2023-03-13T23:20:52.943Z,32.05
2023-03-13T23:23:20.470Z,29.08
2023-03-13T23:25:47.666Z,36.55
2023-03-13T23:28:14.910Z,30.17
2023-03-13T23:30:42.805Z,32.38
2023-03-13T23:33:09.918Z,31.95
2023-03-13T23:35:38.290Z,36.78
2023-03-13T23:38:05.457Z,36.30
2023-03-13T23:40:33.311Z,44.15
2023-03-13T23:43:00.520Z,32.60
2023-03-13T23:45:27.944Z,32.15
2023-03-13T23:47:55.335Z,30.60
2023-03-13T23:50:23.394Z,31.20
2023-03-13T23:52:50.571Z,40.85
2023-03-13T23:55:17.908Z,32.50
2023-03-13T23:57:48.635Z,30.58
